Bei Facebook empfehlenBei Twitter postenGoogle plusPinterest

Das Wetter im Erzgebirge am 06.07.2017

Wetter und Klima am 06.07.2017 Holzhau im Erzgebirge (630m ü.NN)
Letzte gemessene Temperatur und Uhrzeit der Messung23:45:00 Uhr16.20 °C
Temperatur (Maximum / Höchstwert) und Uhrzeit der Messung14:00:00 Uhr25.90 °C
Temperatur (Minimum / Tiefstwert) und Uhrzeit der Messung06:00:009.90 °C
Errechneter Absolutwert der Temperaturschwankungen zwischen Tmin und Tmax des Tages16.00 K
Errechnete Tagesmitteltemperatur18.66667 °C
Gesamt - Niederschlag des Tages (in flüssiger Form)0.52 Liter / m²
Luftdruck (Maximum / Höchstwert) und Zeitpunkt der Messung10:00:00 Uhr1017.60 hPa
Luftdruck (Minimum / Tiefstwert) und Zeitpunkt der Messung23:45:00 Uhr1015.30 hPa
Errechneter Absolutwert der Luftdruckschwankungen des Tages2.30 hPa
Höchste gemessene Windgeschwindigkeit und Uhrzeit der Messung11:00:00 Uhr660.96 km/h
Errechnete Windhäufigkeit in Relation zu den Messwerten des Tages6.25000 %
Niedrigste Windkühle (Windchill) und Zeitpunkt der Messung06:00:00 Uhr9.90 °C
Taupunkt (Maximum / Höchstwert) und Uhrzeit der Messung08:45:00 Uhr16.00 °C
Taupunkt (Minimum / Tiefstwert) und Uhrzeit der Messung06:00:008.70 °C
Anzahl der automatisch eingelesenen Messwerte 96

Detaillierte Wetter- und Klima- Messwerte für den 06.07.2017 in Holzhau im Erzgebirge (630m ü.NN)
ZeitTemperaturLuftdruckRel. LuftfeuchteWindWindrichtungWindchillTaupunktNiederschlag l/m²
23:45:0016.20 °C1015.30 hPa80.00 %3.96 km/hSO16.20 °C12.70 °C0.52
23:30:0015.60 °C1015.80 hPa81.00 %12.40 °C0.52
23:15:0015.40 °C1015.70 hPa81.00 %12.20 °C0.52
23:00:0015.40 °C1015.90 hPa80.00 %12.00 °C0.52
22:45:0015.60 °C1015.70 hPa80.00 %12.20 °C0.52
22:30:0015.90 °C1015.70 hPa80.00 %12.50 °C0.52
22:15:0015.90 °C1015.70 hPa80.00 %12.50 °C0.52
22:00:0016.10 °C1015.80 hPa79.00 %11.52 km/hOSO16.10 °C12.50 °C0.52
21:45:0016.40 °C1015.90 hPa77.00 %12.40 °C0.52
21:30:0016.90 °C1016.00 hPa74.00 %12.20 °C0.52
21:15:0017.70 °C1015.90 hPa72.00 %12.60 °C0.52
21:00:0018.50 °C1015.80 hPa70.00 %12.90 °C0.52
20:45:0019.50 °C1015.70 hPa67.00 %13.20 °C0.52
20:30:0020.50 °C1015.80 hPa64.00 %13.50 °C0.52
20:15:0021.40 °C1015.90 hPa62.00 %13.80 °C0.52
20:00:0022.10 °C1016.20 hPa60.00 %14.00 °C0.52
19:45:0022.90 °C1016.00 hPa57.00 %13.90 °C0.52
19:30:0023.90 °C1015.90 hPa53.00 %33.84 km/hSW25.30 °C13.70 °C0.52
19:15:0024.40 °C1015.70 hPa53.00 %20.88 km/hSO26.00 °C14.20 °C0.52
19:00:0024.80 °C1015.70 hPa52.00 %14.30 °C0.52
18:45:0025.40 °C1015.70 hPa51.00 %14.50 °C0.52
18:30:0025.70 °C1015.80 hPa49.00 %14.20 °C0.52
18:15:0025.80 °C1015.80 hPa49.00 %14.30 °C0.52
18:00:0025.70 °C1016.00 hPa49.00 %14.20 °C0.52
17:45:0025.40 °C1016.00 hPa51.00 %14.50 °C0.52
17:30:0024.90 °C1016.00 hPa52.00 %14.40 °C0.52
17:15:0024.60 °C1016.20 hPa52.00 %14.10 °C0.52
17:00:0025.70 °C1016.60 hPa50.00 %14.50 °C0.52
16:45:0025.80 °C1016.70 hPa53.00 %15.50 °C0.52
16:30:0025.10 °C1016.60 hPa52.00 %14.60 °C0.52
16:15:0024.60 °C1016.90 hPa52.00 %14.10 °C0.52
16:00:0024.70 °C1016.90 hPa53.00 %14.50 °C0.52
15:45:0024.60 °C1016.90 hPa55.00 %15.00 °C0.52
15:30:0024.40 °C1016.80 hPa54.00 %14.50 °C0.52
15:15:0025.20 °C1016.80 hPa52.00 %14.60 °C0.52
15:00:0025.60 °C1016.90 hPa52.00 %15.00 °C0.52
14:45:0025.50 °C1016.80 hPa51.00 %10.44 km/hOSO25.50 °C14.60 °C0.52
14:30:0025.10 °C1017.00 hPa52.00 %14.60 °C0.52
14:15:0025.80 °C1017.00 hPa50.00 %14.60 °C0.52
14:00:0025.90 °C1017.10 hPa51.00 %15.00 °C0.52
13:45:0025.50 °C1017.20 hPa52.00 %14.90 °C0.52
13:30:0024.90 °C1017.10 hPa53.00 %14.70 °C0.52
13:15:0025.30 °C1017.10 hPa53.00 %15.00 °C0.52
13:00:0024.90 °C1017.40 hPa56.00 %15.50 °C0.52
12:45:0025.10 °C1017.00 hPa55.00 %15.40 °C0.52
12:30:0025.30 °C1017.40 hPa54.00 %15.30 °C0.52
12:15:0024.80 °C1017.30 hPa54.00 %14.90 °C0.52
12:00:0023.60 °C1017.10 hPa56.00 %14.30 °C0.52
11:45:0024.50 °C1017.20 hPa56.00 %15.10 °C0.52
11:30:0023.70 °C1017.50 hPa56.00 %14.40 °C0.52
11:15:0024.10 °C1017.40 hPa56.00 %14.80 °C0.52
11:00:0023.80 °C1017.50 hPa54.00 %660.96 km/hSO23.50 °C13.90 °C0.52
10:45:0024.10 °C1017.50 hPa54.00 %14.20 °C0.52
10:30:0023.00 °C1017.40 hPa56.00 %13.80 °C0.52
10:15:0022.90 °C1017.50 hPa56.00 %13.70 °C0.52
10:00:0022.80 °C1017.60 hPa60.00 %14.60 °C0.52
09:45:0022.00 °C1017.40 hPa63.00 %14.60 °C0.52
09:30:0021.60 °C1017.30 hPa67.00 %15.20 °C0.52
09:15:0021.30 °C1017.20 hPa69.00 %15.40 °C0.52
09:00:0021.80 °C1016.90 hPa69.00 %15.90 °C0.52
08:45:0020.80 °C1016.80 hPa74.00 %16.00 °C0.52
08:30:0019.60 °C1016.90 hPa77.00 %15.50 °C0.52
08:15:0018.60 °C1016.80 hPa79.00 %14.90 °C0.52
08:00:0017.80 °C1016.80 hPa78.00 %13.90 °C0.52
07:45:0016.60 °C1016.80 hPa82.00 %13.50 °C0.52
07:30:0015.10 °C1016.70 hPa87.00 %13.00 °C0.52
07:15:0012.80 °C1016.70 hPa93.00 %11.70 °C0.52
07:00:0011.30 °C1016.70 hPa93.00 %10.20 °C0.52
06:45:0010.90 °C1016.60 hPa93.00 %9.80 °C0.52
06:30:0010.40 °C1016.50 hPa93.00 %9.30 °C0.52
06:15:0010.10 °C1016.50 hPa92.00 %8.90 °C0.52
06:00:009.90 °C1016.50 hPa92.00 %8.70 °C0.52
05:45:009.90 °C1016.50 hPa92.00 %8.70 °C0.52
05:30:0010.10 °C1016.30 hPa92.00 %8.90 °C0.52
05:15:0010.30 °C1016.30 hPa92.00 %9.10 °C0.52
05:00:0010.40 °C1016.40 hPa92.00 %9.20 °C0.52
04:45:0010.50 °C1016.20 hPa92.00 %9.30 °C0.52
04:30:0010.40 °C1016.50 hPa91.00 %9.00 °C0.52
04:15:0010.50 °C1016.60 hPa91.00 %9.10 °C0.52
04:00:0010.60 °C1016.20 hPa91.00 %9.20 °C0.52
03:45:0010.70 °C1016.30 hPa91.00 %9.30 °C0.52
03:30:0010.70 °C1016.40 hPa91.00 %9.30 °C0.52
03:15:0010.60 °C1016.30 hPa91.00 %9.20 °C0.52
03:00:0010.70 °C1016.30 hPa90.00 %9.10 °C0.52
02:45:0010.90 °C1016.30 hPa90.00 %9.30 °C0.52
02:30:0011.10 °C1016.50 hPa90.00 %9.50 °C0.52
02:15:0011.30 °C1016.50 hPa90.00 %9.70 °C0.52
02:00:0011.60 °C1016.50 hPa90.00 %10.00 °C0.52
01:45:0011.60 °C1016.30 hPa90.00 %10.00 °C0.52
01:30:0011.50 °C1016.50 hPa90.00 %9.90 °C0.52
01:15:0011.40 °C1016.40 hPa89.00 %9.70 °C0.52
01:00:0011.30 °C1016.60 hPa89.00 %9.60 °C0.52
00:45:0011.30 °C1016.50 hPa88.00 %9.40 °C0.52
00:30:0011.60 °C1016.20 hPa88.00 %9.70 °C0.52
00:15:0011.70 °C1016.20 hPa87.00 %9.60 °C0.52
00:00:0011.80 °C1016.30 hPa86.00 %9.50 °C 

Permanenter Link zu dieser Seite: Wetter im Erzgebirge am 06.07.2017
Performance-Info: Die Erstellung der Seite / Statistik(en) / Tabelle(n) erforderte 5 Datenbankserver-Abfrage(n) und dauerte 105 Millisekunden. (Dieser Messwert ist von der Gesamt-Auslastung des Servers abhängig.)
Erzgebirge - Wetter | Erzgebirge - Wetter (Mobilgeräte) | Komplette Klimadatenbank